CTB1914 EBBR-EDDH
Flight info
| Callsign | CTB1914 |
|---|---|
| Flight time | 0h 53m |
| Altitude | 34000 |
| Route | NIK L191 VICOT N873 SPY/N0469F350 N873 ANDIK M105 RIBSO RIBSO7A |
| Aircraft | MD11/H-SDE1E2E3FGHIJ2J3J4J5M1RWXY/LB1D1 |
Departure
| Time | 2026-05-07 19:11 |
|---|---|
| Airport | Brussels Airport (EBBR) |
Arrival
| Time | 2026-05-07 20:05 |
|---|---|
| Airport | Hamburg Helmut Schmidt Airport (EDDH) |
| Time | Latitude | Longitude | Altitude | Speed | Heading |
|---|---|---|---|---|---|
| 2026-05-07 18:22 | 50.90432 | 4.49119 | 195 ft | 0 kts | 300° |
| 2026-05-07 18:58 | 50.90430 | 4.49123 | 196 ft | 2 kts | 301° |
| 2026-05-07 18:59 | 50.90421 | 4.49142 | 196 ft | 2 kts | 320° |
| 2026-05-07 18:59 | 50.90408 | 4.49154 | 196 ft | 2 kts | 337° |
| 2026-05-07 18:59 | 50.90394 | 4.49161 | 196 ft | 2 kts | 353° |
| 2026-05-07 18:59 | 50.90379 | 4.49161 | 196 ft | 2 kts | 9° |
| 2026-05-07 19:00 | 50.90365 | 4.49154 | 196 ft | 2 kts | 25° |
| 2026-05-07 19:00 | 50.90353 | 4.49142 | 196 ft | 2 kts | 41° |
| 2026-05-07 19:00 | 50.90343 | 4.49124 | 196 ft | 1 kts | 58° |
| 2026-05-07 19:00 | 50.90340 | 4.49116 | 196 ft | 0 kts | 62° |
| 2026-05-07 19:04 | 50.90345 | 4.49133 | 195 ft | 5 kts | 62° |
| 2026-05-07 19:04 | 50.90373 | 4.49215 | 196 ft | 8 kts | 63° |
| 2026-05-07 19:05 | 50.90404 | 4.49322 | 195 ft | 11 kts | 65° |
| 2026-05-07 19:05 | 50.90433 | 4.49421 | 196 ft | 6 kts | 65° |
| 2026-05-07 19:05 | 50.90452 | 4.49490 | 195 ft | 7 kts | 66° |
| 2026-05-07 19:05 | 50.90476 | 4.49573 | 195 ft | 8 kts | 56° |
| 2026-05-07 19:06 | 50.90532 | 4.49621 | 196 ft | 10 kts | 14° |
| 2026-05-07 19:06 | 50.90684 | 4.49681 | 195 ft | 12 kts | 14° |
| 2026-05-07 19:06 | 50.90763 | 4.49715 | 196 ft | 11 kts | 14° |
| 2026-05-07 19:07 | 50.90824 | 4.49741 | 195 ft | 8 kts | 14° |
| 2026-05-07 19:07 | 50.90883 | 4.49766 | 196 ft | 8 kts | 14° |
| 2026-05-07 19:07 | 50.90926 | 4.49791 | 195 ft | 3 kts | 28° |
| 2026-05-07 19:07 | 50.90952 | 4.49820 | 195 ft | 5 kts | 38° |
| 2026-05-07 19:08 | 50.90982 | 4.49858 | 195 ft | 4 kts | 38° |
| 2026-05-07 19:08 | 50.91003 | 4.49882 | 195 ft | 4 kts | 32° |
| 2026-05-07 19:08 | 50.91012 | 4.49891 | 195 ft | 0 kts | 29° |
| 2026-05-07 19:08 | 50.91018 | 4.49896 | 196 ft | 1 kts | 27° |
| 2026-05-07 19:09 | 50.91020 | 4.49898 | 196 ft | 0 kts | 27° |
| 2026-05-07 19:09 | 50.91031 | 4.49906 | 195 ft | 5 kts | 27° |
| 2026-05-07 19:10 | 50.91092 | 4.49946 | 196 ft | 9 kts | 12° |
| 2026-05-07 19:10 | 50.91143 | 4.49901 | 195 ft | 7 kts | 268° |
| 2026-05-07 19:10 | 50.91107 | 4.49772 | 195 ft | 21 kts | 244° |
| 2026-05-07 19:10 | 50.90990 | 4.49383 | 196 ft | 71 kts | 245° |
| 2026-05-07 19:11 | 50.90677 | 4.48287 | 196 ft | 145 kts | 245° |
| 2026-05-07 19:11 | 50.90185 | 4.46612 | 368 ft | 182 kts | 243° |
| 2026-05-07 19:11 | 50.89732 | 4.44712 | 883 ft | 191 kts | 266° |
| 2026-05-07 19:11 | 50.89972 | 4.42605 | 1500 ft | 195 kts | 300° |
| 2026-05-07 19:12 | 50.90677 | 4.40871 | 2347 ft | 188 kts | 306° |
| 2026-05-07 19:12 | 50.91355 | 4.39142 | 3042 ft | 187 kts | 302° |
| 2026-05-07 19:12 | 50.92092 | 4.37393 | 3457 ft | 203 kts | 313° |
| 2026-05-07 19:12 | 50.93229 | 4.35898 | 3693 ft | 228 kts | 332° |
| 2026-05-07 19:13 | 50.94731 | 4.34755 | 4155 ft | 251 kts | 338° |
| 2026-05-07 19:13 | 50.96364 | 4.33625 | 4941 ft | 264 kts | 337° |
| 2026-05-07 19:13 | 50.98060 | 4.32409 | 5865 ft | 273 kts | 335° |
| 2026-05-07 19:13 | 50.99781 | 4.31128 | 6625 ft | 278 kts | 334° |
| 2026-05-07 19:14 | 51.01527 | 4.29807 | 7069 ft | 284 kts | 334° |
| 2026-05-07 19:14 | 51.03294 | 4.28463 | 8212 ft | 283 kts | 334° |
| 2026-05-07 19:14 | 51.05056 | 4.27120 | 9238 ft | 287 kts | 334° |
| 2026-05-07 19:14 | 51.06839 | 4.25757 | 10253 ft | 290 kts | 333° |
| 2026-05-07 19:15 | 51.08743 | 4.24301 | 10682 ft | 318 kts | 333° |
| 2026-05-07 19:15 | 51.10824 | 4.22709 | 10936 ft | 349 kts | 333° |
| 2026-05-07 19:15 | 51.13092 | 4.20965 | 11302 ft | 373 kts | 332° |
| 2026-05-07 19:15 | 51.15437 | 4.18988 | 12074 ft | 385 kts | 329° |
| 2026-05-07 19:16 | 51.17724 | 4.16799 | 12989 ft | 391 kts | 326° |
| 2026-05-07 19:16 | 51.19984 | 4.14314 | 13930 ft | 397 kts | 323° |
| 2026-05-07 19:16 | 51.22230 | 4.11740 | 14871 ft | 401 kts | 323° |
| 2026-05-07 19:16 | 51.24536 | 4.09198 | 15759 ft | 407 kts | 327° |
| 2026-05-07 19:17 | 51.27026 | 4.07139 | 16581 ft | 413 kts | 336° |
| 2026-05-07 19:17 | 51.29787 | 4.05747 | 17440 ft | 419 kts | 346° |
| 2026-05-07 19:17 | 51.32666 | 4.05131 | 18240 ft | 426 kts | 356° |
| 2026-05-07 19:17 | 51.35645 | 4.05088 | 19073 ft | 430 kts | 359° |
| 2026-05-07 19:18 | 51.38646 | 4.05111 | 19887 ft | 435 kts | 358° |
| 2026-05-07 19:18 | 51.41674 | 4.05099 | 20642 ft | 439 kts | 358° |
| 2026-05-07 19:18 | 51.44716 | 4.05215 | 21350 ft | 445 kts | 3° |
| 2026-05-07 19:18 | 51.47818 | 4.05893 | 22084 ft | 452 kts | 10° |
| 2026-05-07 19:19 | 51.50845 | 4.07151 | 22798 ft | 457 kts | 17° |
| 2026-05-07 19:19 | 51.53824 | 4.09080 | 23485 ft | 464 kts | 23° |
| 2026-05-07 19:19 | 51.56723 | 4.11265 | 24226 ft | 467 kts | 24° |
| 2026-05-07 19:19 | 51.59649 | 4.13497 | 24883 ft | 472 kts | 24° |
| 2026-05-07 19:20 | 51.62625 | 4.15747 | 25543 ft | 477 kts | 24° |
| 2026-05-07 19:20 | 51.65656 | 4.18024 | 26212 ft | 480 kts | 23° |
| 2026-05-07 19:20 | 51.68685 | 4.20288 | 26935 ft | 482 kts | 23° |
| 2026-05-07 19:20 | 51.71700 | 4.22535 | 27533 ft | 486 kts | 23° |
| 2026-05-07 19:21 | 51.74816 | 4.24854 | 28118 ft | 490 kts | 23° |
| 2026-05-07 19:21 | 51.77903 | 4.27185 | 28686 ft | 493 kts | 24° |
| 2026-05-07 19:21 | 51.81008 | 4.29552 | 29532 ft | 490 kts | 24° |
| 2026-05-07 19:21 | 51.84155 | 4.31947 | 30327 ft | 488 kts | 24° |
| 2026-05-07 19:22 | 51.87209 | 4.34270 | 31044 ft | 487 kts | 24° |
| 2026-05-07 19:22 | 51.90272 | 4.36594 | 31657 ft | 485 kts | 24° |
| 2026-05-07 19:22 | 51.93329 | 4.38913 | 32225 ft | 484 kts | 24° |
| 2026-05-07 19:22 | 51.96346 | 4.41203 | 32735 ft | 483 kts | 23° |
| 2026-05-07 19:23 | 51.99382 | 4.43506 | 33218 ft | 482 kts | 23° |
| 2026-05-07 19:23 | 52.02433 | 4.45818 | 33673 ft | 482 kts | 23° |
| 2026-05-07 19:23 | 52.05446 | 4.48100 | 34015 ft | 483 kts | 24° |
| 2026-05-07 19:23 | 52.08492 | 4.50411 | 34040 ft | 483 kts | 23° |
| 2026-05-07 19:24 | 52.14646 | 4.55073 | 34063 ft | 482 kts | 24° |
| 2026-05-07 19:24 | 52.20454 | 4.59469 | 34075 ft | 482 kts | 24° |
| 2026-05-07 19:25 | 52.26545 | 4.64106 | 34076 ft | 483 kts | 24° |
| 2026-05-07 19:25 | 52.32609 | 4.68793 | 34073 ft | 483 kts | 25° |
| 2026-05-07 19:26 | 52.38702 | 4.73493 | 34076 ft | 483 kts | 25° |
| 2026-05-07 19:26 | 52.44723 | 4.78141 | 34076 ft | 483 kts | 25° |
| 2026-05-07 19:27 | 52.50736 | 4.83018 | 34073 ft | 482 kts | 32° |
| 2026-05-07 19:27 | 52.55982 | 4.89694 | 34084 ft | 480 kts | 46° |
| 2026-05-07 19:28 | 52.60235 | 4.98079 | 34077 ft | 477 kts | 53° |
| 2026-05-07 19:28 | 52.64263 | 5.06672 | 34081 ft | 474 kts | 53° |
| 2026-05-07 19:29 | 52.68285 | 5.15138 | 34077 ft | 473 kts | 52° |
| 2026-05-07 19:29 | 52.72228 | 5.23829 | 34088 ft | 473 kts | 58° |
| 2026-05-07 19:30 | 52.75330 | 5.33293 | 34086 ft | 472 kts | 68° |
| 2026-05-07 19:30 | 52.77674 | 5.43418 | 34086 ft | 471 kts | 70° |
| 2026-05-07 19:31 | 52.79891 | 5.53466 | 34446 ft | 464 kts | 70° |
| 2026-05-07 19:31 | 52.80989 | 5.58444 | 34975 ft | 460 kts | 70° |
| 2026-05-07 19:31 | 52.82157 | 5.63326 | 35050 ft | 465 kts | 66° |
| 2026-05-07 19:32 | 52.84964 | 5.73111 | 35078 ft | 472 kts | 66° |
| 2026-05-07 19:32 | 52.87730 | 5.82934 | 35091 ft | 464 kts | 66° |
| 2026-05-07 19:33 | 52.89054 | 5.87671 | 35056 ft | 453 kts | 66° |
| 2026-05-07 19:33 | 52.90366 | 5.92378 | 35062 ft | 446 kts | 66° |
| 2026-05-07 19:33 | 52.92992 | 6.01802 | 35084 ft | 457 kts | 66° |
| 2026-05-07 19:34 | 52.95680 | 6.11413 | 35088 ft | 468 kts | 65° |
| 2026-05-07 19:34 | 52.98457 | 6.21304 | 35089 ft | 480 kts | 65° |
| 2026-05-07 19:35 | 53.01294 | 6.31382 | 35086 ft | 484 kts | 65° |
| 2026-05-07 19:35 | 53.04139 | 6.41457 | 35093 ft | 482 kts | 65° |
| 2026-05-07 19:36 | 53.06985 | 6.51504 | 35089 ft | 483 kts | 65° |
| 2026-05-07 19:36 | 53.09863 | 6.61648 | 35092 ft | 490 kts | 65° |
| 2026-05-07 19:37 | 53.12789 | 6.71913 | 35091 ft | 491 kts | 65° |
| 2026-05-07 19:37 | 53.15698 | 6.82097 | 35089 ft | 490 kts | 65° |
| 2026-05-07 19:38 | 53.18531 | 6.92384 | 35104 ft | 490 kts | 68° |
| 2026-05-07 19:38 | 53.21214 | 7.02803 | 35101 ft | 489 kts | 68° |
| 2026-05-07 19:39 | 53.23936 | 7.13226 | 35101 ft | 489 kts | 67° |
| 2026-05-07 19:39 | 53.26650 | 7.23537 | 35106 ft | 489 kts | 67° |
| 2026-05-07 19:40 | 53.29377 | 7.33836 | 34517 ft | 487 kts | 67° |
| 2026-05-07 19:40 | 53.30777 | 7.39115 | 33440 ft | 491 kts | 66° |
| 2026-05-07 19:40 | 53.32162 | 7.44337 | 32579 ft | 491 kts | 66° |
| 2026-05-07 19:41 | 53.33551 | 7.49556 | 31784 ft | 494 kts | 66° |
| 2026-05-07 19:41 | 53.34951 | 7.54811 | 30956 ft | 499 kts | 65° |
| 2026-05-07 19:41 | 53.36381 | 7.60164 | 30089 ft | 503 kts | 65° |
| 2026-05-07 19:41 | 53.37830 | 7.65573 | 29242 ft | 507 kts | 66° |
| 2026-05-07 19:42 | 53.39263 | 7.70925 | 28429 ft | 511 kts | 66° |
| 2026-05-07 19:42 | 53.40715 | 7.76337 | 27596 ft | 515 kts | 66° |
| 2026-05-07 19:42 | 53.42182 | 7.81789 | 26788 ft | 518 kts | 66° |
| 2026-05-07 19:42 | 53.43678 | 7.87353 | 25979 ft | 519 kts | 65° |
| 2026-05-07 19:43 | 53.45130 | 7.92749 | 25233 ft | 511 kts | 65° |
| 2026-05-07 19:43 | 53.46585 | 7.98135 | 24333 ft | 504 kts | 65° |
| 2026-05-07 19:43 | 53.48011 | 8.03404 | 23650 ft | 487 kts | 65° |
| 2026-05-07 19:43 | 53.49392 | 8.08496 | 22947 ft | 483 kts | 65° |
| 2026-05-07 19:44 | 53.50776 | 8.13587 | 22219 ft | 477 kts | 65° |
| 2026-05-07 19:44 | 53.52074 | 8.18676 | 21477 ft | 470 kts | 67° |
| 2026-05-07 19:44 | 53.53292 | 8.23676 | 20739 ft | 464 kts | 67° |
| 2026-05-07 19:44 | 53.54513 | 8.28670 | 20003 ft | 457 kts | 67° |
| 2026-05-07 19:45 | 53.55701 | 8.33493 | 19284 ft | 451 kts | 66° |
| 2026-05-07 19:45 | 53.56907 | 8.38360 | 18572 ft | 445 kts | 66° |
| 2026-05-07 19:45 | 53.58084 | 8.43082 | 17872 ft | 440 kts | 66° |
| 2026-05-07 19:45 | 53.59266 | 8.47815 | 17199 ft | 435 kts | 66° |
| 2026-05-07 19:46 | 53.60421 | 8.52428 | 16539 ft | 431 kts | 66° |
| 2026-05-07 19:46 | 53.61577 | 8.57035 | 15875 ft | 427 kts | 66° |
| 2026-05-07 19:46 | 53.62722 | 8.61595 | 15202 ft | 423 kts | 66° |
| 2026-05-07 19:46 | 53.63868 | 8.66144 | 14514 ft | 413 kts | 67° |
| 2026-05-07 19:47 | 53.64950 | 8.70445 | 14011 ft | 388 kts | 67° |
| 2026-05-07 19:47 | 53.65956 | 8.74432 | 13855 ft | 356 kts | 66° |
| 2026-05-07 19:47 | 53.66886 | 8.78116 | 13704 ft | 332 kts | 66° |
| 2026-05-07 19:47 | 53.67775 | 8.81626 | 13632 ft | 317 kts | 66° |
| 2026-05-07 19:48 | 53.68623 | 8.84972 | 13517 ft | 309 kts | 66° |
| 2026-05-07 19:48 | 53.69461 | 8.88275 | 13445 ft | 303 kts | 66° |
| 2026-05-07 19:48 | 53.70277 | 8.91493 | 13346 ft | 301 kts | 66° |
| 2026-05-07 19:48 | 53.71100 | 8.94728 | 13245 ft | 302 kts | 66° |
| 2026-05-07 19:49 | 53.71933 | 8.98004 | 12905 ft | 302 kts | 66° |
| 2026-05-07 19:49 | 53.72752 | 9.01224 | 12483 ft | 300 kts | 66° |
| 2026-05-07 19:49 | 53.73572 | 9.04441 | 12066 ft | 297 kts | 66° |
| 2026-05-07 19:49 | 53.74384 | 9.07625 | 11534 ft | 294 kts | 66° |
| 2026-05-07 19:50 | 53.75179 | 9.10739 | 10923 ft | 292 kts | 66° |
| 2026-05-07 19:50 | 53.75977 | 9.13860 | 10341 ft | 287 kts | 66° |
| 2026-05-07 19:50 | 53.76765 | 9.16939 | 9799 ft | 283 kts | 66° |
| 2026-05-07 19:50 | 53.77519 | 9.19878 | 9511 ft | 265 kts | 66° |
| 2026-05-07 19:51 | 53.78240 | 9.22672 | 9089 ft | 254 kts | 66° |
| 2026-05-07 19:51 | 53.78936 | 9.25349 | 8577 ft | 247 kts | 66° |
| 2026-05-07 19:51 | 53.79617 | 9.27977 | 8029 ft | 242 kts | 66° |
| 2026-05-07 19:51 | 53.80269 | 9.30549 | 7472 ft | 238 kts | 69° |
| 2026-05-07 19:52 | 53.80675 | 9.33213 | 6882 ft | 235 kts | 85° |
| 2026-05-07 19:52 | 53.80521 | 9.35924 | 6297 ft | 232 kts | 106° |
| 2026-05-07 19:52 | 53.79818 | 9.38307 | 5719 ft | 230 kts | 122° |
| 2026-05-07 19:52 | 53.78869 | 9.40477 | 5149 ft | 228 kts | 124° |
| 2026-05-07 19:53 | 53.77944 | 9.42588 | 4584 ft | 226 kts | 123° |
| 2026-05-07 19:53 | 53.77010 | 9.44691 | 4027 ft | 225 kts | 129° |
| 2026-05-07 19:53 | 53.75983 | 9.46183 | 3915 ft | 226 kts | 145° |
| 2026-05-07 19:53 | 53.74491 | 9.47129 | 3950 ft | 233 kts | 168° |
| 2026-05-07 19:54 | 53.72846 | 9.46960 | 3954 ft | 239 kts | 193° |
| 2026-05-07 19:54 | 53.71381 | 9.45739 | 3959 ft | 243 kts | 212° |
| 2026-05-07 19:54 | 53.69968 | 9.44268 | 3939 ft | 241 kts | 200° |
| 2026-05-07 19:54 | 53.68362 | 9.43654 | 3939 ft | 236 kts | 176° |
| 2026-05-07 19:55 | 53.66845 | 9.44012 | 3954 ft | 232 kts | 162° |
| 2026-05-07 19:55 | 53.65336 | 9.44710 | 3952 ft | 231 kts | 160° |
| 2026-05-07 19:55 | 53.63820 | 9.45413 | 3942 ft | 231 kts | 161° |
| 2026-05-07 19:55 | 53.62252 | 9.46089 | 3940 ft | 231 kts | 162° |
| 2026-05-07 19:56 | 53.60691 | 9.46697 | 3860 ft | 228 kts | 164° |
| 2026-05-07 19:56 | 53.59117 | 9.47211 | 3172 ft | 233 kts | 165° |
| 2026-05-07 19:56 | 53.57529 | 9.47694 | 2896 ft | 227 kts | 166° |
| 2026-05-07 19:56 | 53.56039 | 9.48393 | 2937 ft | 224 kts | 150° |
| 2026-05-07 19:57 | 53.54673 | 9.49659 | 2952 ft | 224 kts | 144° |
| 2026-05-07 19:57 | 53.53344 | 9.51049 | 2941 ft | 223 kts | 143° |
| 2026-05-07 19:57 | 53.52039 | 9.52437 | 2935 ft | 223 kts | 143° |
| 2026-05-07 19:57 | 53.50766 | 9.53785 | 2909 ft | 212 kts | 143° |
| 2026-05-07 19:58 | 53.49536 | 9.55077 | 2913 ft | 203 kts | 143° |
| 2026-05-07 19:58 | 53.48378 | 9.56379 | 2929 ft | 200 kts | 131° |
| 2026-05-07 19:58 | 53.47717 | 9.58355 | 2963 ft | 194 kts | 96° |
| 2026-05-07 19:58 | 53.47733 | 9.60608 | 2957 ft | 194 kts | 81° |
| 2026-05-07 19:59 | 53.47952 | 9.62814 | 2951 ft | 194 kts | 79° |
| 2026-05-07 19:59 | 53.48205 | 9.65031 | 2949 ft | 194 kts | 79° |
| 2026-05-07 19:59 | 53.48495 | 9.67253 | 2936 ft | 195 kts | 73° |
| 2026-05-07 19:59 | 53.49008 | 9.69369 | 2956 ft | 196 kts | 63° |
| 2026-05-07 20:00 | 53.49720 | 9.71342 | 2959 ft | 196 kts | 57° |
| 2026-05-07 20:00 | 53.50515 | 9.73187 | 2961 ft | 198 kts | 54° |
| 2026-05-07 20:00 | 53.51367 | 9.75020 | 2974 ft | 197 kts | 53° |
| 2026-05-07 20:00 | 53.52201 | 9.76760 | 2954 ft | 185 kts | 53° |
| 2026-05-07 20:01 | 53.52993 | 9.78386 | 2800 ft | 174 kts | 53° |
| 2026-05-07 20:01 | 53.53738 | 9.79909 | 2572 ft | 165 kts | 53° |
| 2026-05-07 20:01 | 53.54467 | 9.81397 | 2384 ft | 165 kts | 53° |
| 2026-05-07 20:01 | 53.55191 | 9.82876 | 2150 ft | 164 kts | 53° |
| 2026-05-07 20:02 | 53.55916 | 9.84350 | 1934 ft | 161 kts | 53° |
| 2026-05-07 20:02 | 53.56629 | 9.85801 | 1727 ft | 159 kts | 53° |
| 2026-05-07 20:02 | 53.57323 | 9.87218 | 1508 ft | 156 kts | 52° |
| 2026-05-07 20:02 | 53.58010 | 9.88622 | 1312 ft | 154 kts | 52° |
| 2026-05-07 20:03 | 53.58690 | 9.90002 | 1105 ft | 154 kts | 52° |
| 2026-05-07 20:03 | 53.59375 | 9.91387 | 899 ft | 155 kts | 52° |
| 2026-05-07 20:03 | 53.60053 | 9.92770 | 694 ft | 155 kts | 51° |
| 2026-05-07 20:03 | 53.60749 | 9.94171 | 476 ft | 155 kts | 50° |
| 2026-05-07 20:04 | 53.61441 | 9.95575 | 269 ft | 156 kts | 51° |
| 2026-05-07 20:04 | 53.62123 | 9.96965 | 78 ft | 153 kts | 51° |
| 2026-05-07 20:04 | 53.62685 | 9.98107 | 65 ft | 79 kts | 51° |
| 2026-05-07 20:04 | 53.62989 | 9.98722 | 65 ft | 63 kts | 51° |
| 2026-05-07 20:05 | 53.63248 | 9.99254 | 65 ft | 44 kts | 50° |
| 2026-05-07 20:05 | 53.63397 | 9.99564 | 64 ft | 29 kts | 51° |
| 2026-05-07 20:05 | 53.63527 | 9.99829 | 65 ft | 15 kts | 67° |
| 2026-05-07 20:05 | 53.63502 | 9.99969 | 65 ft | 7 kts | 125° |
| 2026-05-07 20:06 | 53.63480 | 10.00016 | 65 ft | 0 kts | 127° |
| 2026-05-07 20:06 | 53.63480 | 10.00018 | 65 ft | 0 kts | 127° |
| 2026-05-07 20:07 | 53.63477 | 10.00023 | 65 ft | 2 kts | 127° |
| 2026-05-07 20:07 | 53.63455 | 10.00072 | 65 ft | 5 kts | 127° |
| 2026-05-07 20:07 | 53.63423 | 10.00143 | 65 ft | 7 kts | 130° |
| 2026-05-07 20:07 | 53.63364 | 10.00190 | 65 ft | 9 kts | 169° |
| 2026-05-07 20:08 | 53.63287 | 10.00205 | 65 ft | 11 kts | 175° |
| 2026-05-07 20:08 | 53.63213 | 10.00215 | 64 ft | 6 kts | 174° |
| 2026-05-07 20:08 | 53.63192 | 10.00246 | 64 ft | 2 kts | 92° |
| 2026-05-07 20:08 | 53.63192 | 10.00263 | 65 ft | 2 kts | 88° |
| 2026-05-07 20:09 | 53.63194 | 10.00323 | 64 ft | 3 kts | 84° |
| 2026-05-07 20:09 | 53.63196 | 10.00357 | 65 ft | 0 kts | 87° |
| 2026-05-07 20:09 | 53.63196 | 10.00374 | 65 ft | 1 kts | 87° |